sensor_id;sensor_type;location;lat;lon;timestamp;P1;durP1;ratioP1;P2;durP2;ratioP2
15629;SDS011;7914;50.842;0.166;2023-09-08T00:02:00;23.45;;;13.25;;
15629;SDS011;7914;50.842;0.166;2023-09-08T00:04:26;22.10;;;12.70;;
15629;SDS011;7914;50.842;0.166;2023-09-08T00:06:51;23.15;;;12.40;;
15629;SDS011;7914;50.842;0.166;2023-09-08T00:09:17;23.65;;;13.25;;
15629;SDS011;7914;50.842;0.166;2023-09-08T00:11:44;23.63;;;13.00;;
15629;SDS011;7914;50.842;0.166;2023-09-08T00:14:09;21.27;;;12.18;;
15629;SDS011;7914;50.842;0.166;2023-09-08T00:16:35;21.27;;;10.90;;
15629;SDS011;7914;50.842;0.166;2023-09-08T00:19:02;17.80;;;10.00;;
15629;SDS011;7914;50.842;0.166;2023-09-08T00:21:34;20.58;;;10.38;;
15629;SDS011;7914;50.842;0.166;2023-09-08T00:24:00;18.25;;;9.15;;
15629;SDS011;7914;50.842;0.166;2023-09-08T00:26:26;18.33;;;9.55;;
15629;SDS011;7914;50.842;0.166;2023-09-08T00:28:51;23.27;;;9.93;;
15629;SDS011;7914;50.842;0.166;2023-09-08T00:31:17;17.67;;;9.35;;
15629;SDS011;7914;50.842;0.166;2023-09-08T00:33:43;16.45;;;8.60;;
15629;SDS011;7914;50.842;0.166;2023-09-08T00:36:09;13.65;;;8.20;;
15629;SDS011;7914;50.842;0.166;2023-09-08T00:38:35;15.75;;;8.30;;
15629;SDS011;7914;50.842;0.166;2023-09-08T00:41:01;15.75;;;8.48;;
15629;SDS011;7914;50.842;0.166;2023-09-08T00:43:26;18.55;;;8.63;;
15629;SDS011;7914;50.842;0.166;2023-09-08T00:45:52;19.50;;;9.02;;
15629;SDS011;7914;50.842;0.166;2023-09-08T00:48:20;18.67;;;8.65;;
15629;SDS011;7914;50.842;0.166;2023-09-08T00:50:46;13.43;;;8.00;;
15629;SDS011;7914;50.842;0.166;2023-09-08T00:53:12;13.75;;;7.93;;
15629;SDS011;7914;50.842;0.166;2023-09-08T00:55:38;14.05;;;7.60;;
15629;SDS011;7914;50.842;0.166;2023-09-08T00:58:05;15.82;;;9.02;;
15629;SDS011;7914;50.842;0.166;2023-09-08T01:00:31;15.60;;;7.78;;
15629;SDS011;7914;50.842;0.166;2023-09-08T01:02:57;14.30;;;7.93;;
15629;SDS011;7914;50.842;0.166;2023-09-08T01:05:23;15.65;;;8.85;;
15629;SDS011;7914;50.842;0.166;2023-09-08T01:07:49;16.20;;;8.95;;
15629;SDS011;7914;50.842;0.166;2023-09-08T01:10:16;15.10;;;8.77;;
15629;SDS011;7914;50.842;0.166;2023-09-08T01:12:51;17.02;;;7.95;;
15629;SDS011;7914;50.842;0.166;2023-09-08T01:15:16;14.70;;;8.35;;
15629;SDS011;7914;50.842;0.166;2023-09-08T01:17:42;16.45;;;7.68;;
15629;SDS011;7914;50.842;0.166;2023-09-08T01:26:03;15.93;;;8.00;;
15629;SDS011;7914;50.842;0.166;2023-09-08T01:28:33;15.85;;;7.20;;
15629;SDS011;7914;50.842;0.166;2023-09-08T01:31:00;19.98;;;9.50;;
15629;SDS011;7914;50.842;0.166;2023-09-08T01:33:26;16.02;;;8.30;;
15629;SDS011;7914;50.842;0.166;2023-09-08T01:35:52;14.90;;;7.38;;
15629;SDS011;7914;50.842;0.166;2023-09-08T01:38:18;17.50;;;7.90;;
15629;SDS011;7914;50.842;0.166;2023-09-08T01:40:46;15.32;;;7.43;;
15629;SDS011;7914;50.842;0.166;2023-09-08T01:43:14;16.85;;;8.15;;
15629;SDS011;7914;50.842;0.166;2023-09-08T01:45:40;14.82;;;7.80;;
15629;SDS011;7914;50.842;0.166;2023-09-08T01:48:06;14.15;;;7.63;;
15629;SDS011;7914;50.842;0.166;2023-09-08T01:50:31;16.05;;;8.07;;
15629;SDS011;7914;50.842;0.166;2023-09-08T01:52:57;14.45;;;7.80;;
15629;SDS011;7914;50.842;0.166;2023-09-08T01:55:23;13.23;;;7.38;;
15629;SDS011;7914;50.842;0.166;2023-09-08T01:57:48;13.85;;;8.32;;
15629;SDS011;7914;50.842;0.166;2023-09-08T02:00:14;13.38;;;7.05;;
15629;SDS011;7914;50.842;0.166;2023-09-08T02:02:40;14.23;;;7.93;;
15629;SDS011;7914;50.842;0.166;2023-09-08T02:05:08;16.67;;;8.82;;
15629;SDS011;7914;50.842;0.166;2023-09-08T02:07:34;15.90;;;8.05;;
15629;SDS011;7914;50.842;0.166;2023-09-08T02:10:00;14.57;;;7.90;;
15629;SDS011;7914;50.842;0.166;2023-09-08T02:12:26;13.73;;;7.90;;
15629;SDS011;7914;50.842;0.166;2023-09-08T02:14:52;16.02;;;7.70;;
15629;SDS011;7914;50.842;0.166;2023-09-08T02:17:18;13.40;;;7.75;;
15629;SDS011;7914;50.842;0.166;2023-09-08T02:19:43;14.50;;;8.23;;
15629;SDS011;7914;50.842;0.166;2023-09-08T02:22:09;16.05;;;7.90;;
15629;SDS011;7914;50.842;0.166;2023-09-08T02:24:35;13.40;;;8.23;;
15629;SDS011;7914;50.842;0.166;2023-09-08T02:27:10;15.57;;;8.50;;
15629;SDS011;7914;50.842;0.166;2023-09-08T02:29:36;13.77;;;7.57;;
15629;SDS011;7914;50.842;0.166;2023-09-08T02:32:01;14.55;;;7.18;;
15629;SDS011;7914;50.842;0.166;2023-09-08T02:34:27;14.73;;;7.50;;
15629;SDS011;7914;50.842;0.166;2023-09-08T02:36:53;14.38;;;6.82;;
15629;SDS011;7914;50.842;0.166;2023-09-08T02:39:18;17.88;;;8.00;;
15629;SDS011;7914;50.842;0.166;2023-09-08T02:41:44;14.23;;;6.95;;
15629;SDS011;7914;50.842;0.166;2023-09-08T02:44:10;13.73;;;6.90;;
15629;SDS011;7914;50.842;0.166;2023-09-08T02:46:35;13.18;;;7.28;;
15629;SDS011;7914;50.842;0.166;2023-09-08T02:49:01;14.60;;;7.50;;
15629;SDS011;7914;50.842;0.166;2023-09-08T02:51:27;12.93;;;6.20;;
15629;SDS011;7914;50.842;0.166;2023-09-08T02:53:53;15.90;;;6.75;;
15629;SDS011;7914;50.842;0.166;2023-09-08T02:56:18;15.38;;;7.70;;
15629;SDS011;7914;50.842;0.166;2023-09-08T02:58:44;14.02;;;7.40;;
15629;SDS011;7914;50.842;0.166;2023-09-08T03:01:14;14.05;;;7.03;;
15629;SDS011;7914;50.842;0.166;2023-09-08T03:03:41;13.55;;;7.57;;
15629;SDS011;7914;50.842;0.166;2023-09-08T03:06:08;14.52;;;7.88;;
15629;SDS011;7914;50.842;0.166;2023-09-08T03:08:34;17.17;;;8.82;;
15629;SDS011;7914;50.842;0.166;2023-09-08T03:11:02;15.13;;;8.15;;
15629;SDS011;7914;50.842;0.166;2023-09-08T03:13:30;14.82;;;8.20;;
15629;SDS011;7914;50.842;0.166;2023-09-08T03:15:56;12.90;;;7.20;;
15629;SDS011;7914;50.842;0.166;2023-09-08T03:18:26;17.60;;;8.95;;
15629;SDS011;7914;50.842;0.166;2023-09-08T03:20:53;14.27;;;8.60;;
15629;SDS011;7914;50.842;0.166;2023-09-08T03:23:18;17.40;;;9.23;;
15629;SDS011;7914;50.842;0.166;2023-09-08T03:25:44;19.30;;;9.82;;
15629;SDS011;7914;50.842;0.166;2023-09-08T03:28:10;17.73;;;9.57;;
15629;SDS011;7914;50.842;0.166;2023-09-08T03:30:36;15.98;;;8.80;;
15629;SDS011;7914;50.842;0.166;2023-09-08T03:33:02;16.45;;;9.35;;
15629;SDS011;7914;50.842;0.166;2023-09-08T03:35:28;16.85;;;8.57;;
15629;SDS011;7914;50.842;0.166;2023-09-08T03:37:53;17.08;;;8.93;;
15629;SDS011;7914;50.842;0.166;2023-09-08T03:40:19;21.38;;;9.93;;
15629;SDS011;7914;50.842;0.166;2023-09-08T03:42:45;16.98;;;9.50;;
15629;SDS011;7914;50.842;0.166;2023-09-08T03:45:23;18.17;;;9.60;;
15629;SDS011;7914;50.842;0.166;2023-09-08T03:47:48;20.13;;;10.40;;
15629;SDS011;7914;50.842;0.166;2023-09-08T03:50:14;20.30;;;9.45;;
15629;SDS011;7914;50.842;0.166;2023-09-08T03:52:39;19.30;;;9.73;;
15629;SDS011;7914;50.842;0.166;2023-09-08T03:55:05;17.52;;;10.38;;
15629;SDS011;7914;50.842;0.166;2023-09-08T03:57:31;17.23;;;9.40;;
15629;SDS011;7914;50.842;0.166;2023-09-08T03:59:57;16.92;;;8.73;;
15629;SDS011;7914;50.842;0.166;2023-09-08T04:02:29;15.13;;;8.02;;
15629;SDS011;7914;50.842;0.166;2023-09-08T04:04:54;18.70;;;9.27;;
15629;SDS011;7914;50.842;0.166;2023-09-08T04:07:20;13.60;;;7.30;;
15629;SDS011;7914;50.842;0.166;2023-09-08T04:09:46;14.65;;;7.47;;
15629;SDS011;7914;50.842;0.166;2023-09-08T04:12:11;14.77;;;7.55;;
15629;SDS011;7914;50.842;0.166;2023-09-08T04:14:37;17.52;;;8.13;;
15629;SDS011;7914;50.842;0.166;2023-09-08T04:17:08;14.52;;;8.10;;
15629;SDS011;7914;50.842;0.166;2023-09-08T04:19:34;13.85;;;7.43;;
15629;SDS011;7914;50.842;0.166;2023-09-08T04:22:00;11.77;;;7.03;;
15629;SDS011;7914;50.842;0.166;2023-09-08T04:24:25;13.43;;;7.25;;
15629;SDS011;7914;50.842;0.166;2023-09-08T04:26:51;16.30;;;7.68;;
15629;SDS011;7914;50.842;0.166;2023-09-08T04:29:17;15.25;;;8.13;;
15629;SDS011;7914;50.842;0.166;2023-09-08T04:31:42;17.17;;;8.23;;
15629;SDS011;7914;50.842;0.166;2023-09-08T04:34:08;14.32;;;7.85;;
15629;SDS011;7914;50.842;0.166;2023-09-08T04:36:34;13.18;;;7.18;;
15629;SDS011;7914;50.842;0.166;2023-09-08T04:38:59;14.85;;;7.78;;
15629;SDS011;7914;50.842;0.166;2023-09-08T04:41:25;13.80;;;6.90;;
15629;SDS011;7914;50.842;0.166;2023-09-08T04:43:51;14.23;;;7.30;;
15629;SDS011;7914;50.842;0.166;2023-09-08T04:46:17;14.25;;;8.13;;
15629;SDS011;7914;50.842;0.166;2023-09-08T04:48:44;15.13;;;8.00;;
15629;SDS011;7914;50.842;0.166;2023-09-08T04:51:11;13.65;;;7.50;;
15629;SDS011;7914;50.842;0.166;2023-09-08T04:53:36;15.48;;;7.97;;
15629;SDS011;7914;50.842;0.166;2023-09-08T04:56:03;14.40;;;8.02;;
15629;SDS011;7914;50.842;0.166;2023-09-08T04:58:28;13.98;;;7.85;;
15629;SDS011;7914;50.842;0.166;2023-09-08T05:00:54;16.27;;;8.68;;
15629;SDS011;7914;50.842;0.166;2023-09-08T05:03:21;14.68;;;8.75;;
15629;SDS011;7914;50.842;0.166;2023-09-08T05:05:47;14.40;;;7.90;;
15629;SDS011;7914;50.842;0.166;2023-09-08T05:08:13;13.63;;;8.07;;
15629;SDS011;7914;50.842;0.166;2023-09-08T05:10:39;16.52;;;8.05;;
15629;SDS011;7914;50.842;0.166;2023-09-08T05:13:04;15.80;;;8.40;;
15629;SDS011;7914;50.842;0.166;2023-09-08T05:15:30;12.50;;;7.32;;
15629;SDS011;7914;50.842;0.166;2023-09-08T05:17:56;15.70;;;8.13;;
15629;SDS011;7914;50.842;0.166;2023-09-08T05:20:22;16.05;;;8.70;;
15629;SDS011;7914;50.842;0.166;2023-09-08T05:22:47;15.88;;;8.52;;
15629;SDS011;7914;50.842;0.166;2023-09-08T05:25:13;15.00;;;8.77;;
15629;SDS011;7914;50.842;0.166;2023-09-08T05:27:39;16.67;;;8.13;;
15629;SDS011;7914;50.842;0.166;2023-09-08T05:30:05;17.17;;;8.20;;
15629;SDS011;7914;50.842;0.166;2023-09-08T05:32:37;14.70;;;8.35;;
15629;SDS011;7914;50.842;0.166;2023-09-08T05:35:03;15.55;;;7.93;;
15629;SDS011;7914;50.842;0.166;2023-09-08T05:37:29;14.25;;;8.02;;
15629;SDS011;7914;50.842;0.166;2023-09-08T05:39:55;14.15;;;8.18;;
15629;SDS011;7914;50.842;0.166;2023-09-08T05:42:21;15.82;;;8.07;;
15629;SDS011;7914;50.842;0.166;2023-09-08T05:44:46;15.20;;;8.45;;
15629;SDS011;7914;50.842;0.166;2023-09-08T05:47:13;16.70;;;8.60;;
15629;SDS011;7914;50.842;0.166;2023-09-08T05:49:38;14.15;;;7.53;;
15629;SDS011;7914;50.842;0.166;2023-09-08T05:52:04;15.98;;;8.63;;
15629;SDS011;7914;50.842;0.166;2023-09-08T05:54:30;19.45;;;9.32;;
15629;SDS011;7914;50.842;0.166;2023-09-08T05:56:55;13.25;;;7.82;;
15629;SDS011;7914;50.842;0.166;2023-09-08T05:59:21;12.65;;;7.13;;
15629;SDS011;7914;50.842;0.166;2023-09-08T06:01:47;14.75;;;8.05;;
15629;SDS011;7914;50.842;0.166;2023-09-08T06:04:13;15.45;;;8.02;;
15629;SDS011;7914;50.842;0.166;2023-09-08T06:06:51;14.43;;;7.60;;
15629;SDS011;7914;50.842;0.166;2023-09-08T06:09:16;14.25;;;7.55;;
15629;SDS011;7914;50.842;0.166;2023-09-08T06:11:42;13.50;;;7.22;;
15629;SDS011;7914;50.842;0.166;2023-09-08T06:14:08;14.43;;;7.25;;
15629;SDS011;7914;50.842;0.166;2023-09-08T06:16:34;15.80;;;8.45;;
15629;SDS011;7914;50.842;0.166;2023-09-08T06:19:00;13.40;;;6.88;;
15629;SDS011;7914;50.842;0.166;2023-09-08T06:21:28;14.18;;;7.68;;
15629;SDS011;7914;50.842;0.166;2023-09-08T06:23:54;18.13;;;7.70;;
15629;SDS011;7914;50.842;0.166;2023-09-08T06:26:19;13.65;;;7.22;;
15629;SDS011;7914;50.842;0.166;2023-09-08T06:28:45;16.23;;;8.57;;
15629;SDS011;7914;50.842;0.166;2023-09-08T06:31:11;19.10;;;8.20;;
15629;SDS011;7914;50.842;0.166;2023-09-08T06:33:36;15.80;;;7.70;;
15629;SDS011;7914;50.842;0.166;2023-09-08T06:36:02;14.27;;;7.85;;
15629;SDS011;7914;50.842;0.166;2023-09-08T06:38:28;15.45;;;7.18;;
15629;SDS011;7914;50.842;0.166;2023-09-08T06:40:56;12.18;;;7.00;;
15629;SDS011;7914;50.842;0.166;2023-09-08T06:43:36;15.52;;;7.88;;
15629;SDS011;7914;50.842;0.166;2023-09-08T06:46:01;14.80;;;8.13;;
15629;SDS011;7914;50.842;0.166;2023-09-08T06:48:27;16.25;;;8.35;;
15629;SDS011;7914;50.842;0.166;2023-09-08T06:50:54;13.45;;;7.43;;
15629;SDS011;7914;50.842;0.166;2023-09-08T06:53:21;12.45;;;7.20;;
15629;SDS011;7914;50.842;0.166;2023-09-08T06:55:48;14.25;;;8.23;;
15629;SDS011;7914;50.842;0.166;2023-09-08T06:58:13;15.07;;;7.97;;
15629;SDS011;7914;50.842;0.166;2023-09-08T07:00:42;14.23;;;7.85;;
15629;SDS011;7914;50.842;0.166;2023-09-08T07:03:08;11.68;;;7.07;;
15629;SDS011;7914;50.842;0.166;2023-09-08T07:05:34;14.82;;;7.90;;
15629;SDS011;7914;50.842;0.166;2023-09-08T07:08:00;12.88;;;7.57;;
15629;SDS011;7914;50.842;0.166;2023-09-08T07:10:26;12.45;;;6.68;;
15629;SDS011;7914;50.842;0.166;2023-09-08T07:12:55;11.70;;;7.18;;
15629;SDS011;7914;50.842;0.166;2023-09-08T07:15:21;11.48;;;6.13;;
15629;SDS011;7914;50.842;0.166;2023-09-08T07:17:47;11.57;;;6.72;;
15629;SDS011;7914;50.842;0.166;2023-09-08T07:20:12;11.43;;;6.35;;
15629;SDS011;7914;50.842;0.166;2023-09-08T07:22:38;12.48;;;6.82;;
15629;SDS011;7914;50.842;0.166;2023-09-08T07:25:04;12.05;;;6.35;;
15629;SDS011;7914;50.842;0.166;2023-09-08T07:27:30;10.45;;;6.30;;
15629;SDS011;7914;50.842;0.166;2023-09-08T07:29:56;12.85;;;6.65;;
15629;SDS011;7914;50.842;0.166;2023-09-08T07:32:21;11.13;;;5.90;;
15629;SDS011;7914;50.842;0.166;2023-09-08T07:34:49;10.93;;;6.38;;
15629;SDS011;7914;50.842;0.166;2023-09-08T07:37:20;10.55;;;5.47;;
15629;SDS011;7914;50.842;0.166;2023-09-08T07:39:47;13.07;;;6.00;;
15629;SDS011;7914;50.842;0.166;2023-09-08T07:42:13;11.68;;;6.13;;
15629;SDS011;7914;50.842;0.166;2023-09-08T07:44:39;11.02;;;6.35;;
15629;SDS011;7914;50.842;0.166;2023-09-08T07:47:05;10.38;;;6.03;;
15629;SDS011;7914;50.842;0.166;2023-09-08T07:49:32;11.73;;;5.50;;
15629;SDS011;7914;50.842;0.166;2023-09-08T07:52:02;11.55;;;5.72;;
15629;SDS011;7914;50.842;0.166;2023-09-08T07:54:29;12.55;;;6.55;;
15629;SDS011;7914;50.842;0.166;2023-09-08T07:56:55;32.75;;;7.15;;
15629;SDS011;7914;50.842;0.166;2023-09-08T07:59:21;13.23;;;6.32;;
15629;SDS011;7914;50.842;0.166;2023-09-08T08:01:47;11.63;;;6.03;;
15629;SDS011;7914;50.842;0.166;2023-09-08T08:04:13;9.00;;;5.57;;
15629;SDS011;7914;50.842;0.166;2023-09-08T08:06:38;9.80;;;6.15;;
15629;SDS011;7914;50.842;0.166;2023-09-08T08:09:04;10.13;;;5.68;;
15629;SDS011;7914;50.842;0.166;2023-09-08T08:11:30;10.40;;;5.93;;
15629;SDS011;7914;50.842;0.166;2023-09-08T08:13:56;10.05;;;5.82;;
15629;SDS011;7914;50.842;0.166;2023-09-08T08:16:22;10.65;;;5.68;;
15629;SDS011;7914;50.842;0.166;2023-09-08T08:18:48;12.10;;;5.68;;
15629;SDS011;7914;50.842;0.166;2023-09-08T08:21:14;12.75;;;6.07;;
15629;SDS011;7914;50.842;0.166;2023-09-08T08:23:41;11.13;;;6.38;;
15629;SDS011;7914;50.842;0.166;2023-09-08T08:26:07;12.23;;;5.55;;
15629;SDS011;7914;50.842;0.166;2023-09-08T08:28:32;8.90;;;4.93;;
15629;SDS011;7914;50.842;0.166;2023-09-08T08:31:02;8.63;;;4.95;;
15629;SDS011;7914;50.842;0.166;2023-09-08T08:33:28;8.60;;;4.57;;
15629;SDS011;7914;50.842;0.166;2023-09-08T08:35:54;9.40;;;5.22;;
15629;SDS011;7914;50.842;0.166;2023-09-08T08:38:20;8.52;;;4.82;;
15629;SDS011;7914;50.842;0.166;2023-09-08T08:40:47;10.30;;;5.13;;
15629;SDS011;7914;50.842;0.166;2023-09-08T08:43:12;9.27;;;4.72;;
15629;SDS011;7914;50.842;0.166;2023-09-08T08:45:38;8.77;;;4.60;;
15629;SDS011;7914;50.842;0.166;2023-09-08T08:48:06;9.98;;;4.63;;
15629;SDS011;7914;50.842;0.166;2023-09-08T08:50:33;10.43;;;5.28;;
15629;SDS011;7914;50.842;0.166;2023-09-08T08:53:00;9.05;;;4.95;;
15629;SDS011;7914;50.842;0.166;2023-09-08T08:55:27;9.57;;;4.90;;
15629;SDS011;7914;50.842;0.166;2023-09-08T08:57:55;13.85;;;5.65;;
15629;SDS011;7914;50.842;0.166;2023-09-08T09:00:29;11.30;;;4.85;;
15629;SDS011;7914;50.842;0.166;2023-09-08T09:02:55;9.70;;;5.05;;
15629;SDS011;7914;50.842;0.166;2023-09-08T09:09:03;8.35;;;4.43;;
15629;SDS011;7914;50.842;0.166;2023-09-08T09:11:30;10.63;;;4.65;;
15629;SDS011;7914;50.842;0.166;2023-09-08T09:13:57;12.75;;;4.63;;
15629;SDS011;7914;50.842;0.166;2023-09-08T09:16:23;9.60;;;4.15;;
15629;SDS011;7914;50.842;0.166;2023-09-08T09:18:55;9.23;;;4.28;;
15629;SDS011;7914;50.842;0.166;2023-09-08T09:21:22;8.40;;;3.97;;
15629;SDS011;7914;50.842;0.166;2023-09-08T09:23:48;7.45;;;3.50;;
15629;SDS011;7914;50.842;0.166;2023-09-08T09:26:25;10.10;;;4.25;;
15629;SDS011;7914;50.842;0.166;2023-09-08T09:28:51;11.05;;;4.13;;
15629;SDS011;7914;50.842;0.166;2023-09-08T09:31:22;6.75;;;3.22;;
15629;SDS011;7914;50.842;0.166;2023-09-08T09:34:00;7.47;;;3.47;;
15629;SDS011;7914;50.842;0.166;2023-09-08T09:36:29;8.75;;;3.92;;
15629;SDS011;7914;50.842;0.166;2023-09-08T09:38:58;6.32;;;3.10;;
15629;SDS011;7914;50.842;0.166;2023-09-08T09:41:26;7.45;;;3.78;;
15629;SDS011;7914;50.842;0.166;2023-09-08T09:43:53;7.25;;;3.67;;
15629;SDS011;7914;50.842;0.166;2023-09-08T09:46:20;7.32;;;3.13;;
15629;SDS011;7914;50.842;0.166;2023-09-08T09:48:50;7.50;;;3.10;;
15629;SDS011;7914;50.842;0.166;2023-09-08T09:51:18;7.00;;;3.33;;
15629;SDS011;7914;50.842;0.166;2023-09-08T09:53:54;6.72;;;3.15;;
15629;SDS011;7914;50.842;0.166;2023-09-08T09:56:20;7.88;;;3.20;;
15629;SDS011;7914;50.842;0.166;2023-09-08T09:58:48;6.85;;;3.17;;
15629;SDS011;7914;50.842;0.166;2023-09-08T10:01:17;8.32;;;3.22;;
15629;SDS011;7914;50.842;0.166;2023-09-08T10:03:43;6.72;;;3.35;;
15629;SDS011;7914;50.842;0.166;2023-09-08T10:06:09;6.97;;;3.20;;
15629;SDS011;7914;50.842;0.166;2023-09-08T10:08:36;6.05;;;2.92;;
15629;SDS011;7914;50.842;0.166;2023-09-08T10:11:04;6.95;;;3.13;;
15629;SDS011;7914;50.842;0.166;2023-09-08T10:13:33;7.25;;;3.45;;
15629;SDS011;7914;50.842;0.166;2023-09-08T10:16:08;7.57;;;3.30;;
15629;SDS011;7914;50.842;0.166;2023-09-08T10:18:34;7.75;;;3.15;;
15629;SDS011;7914;50.842;0.166;2023-09-08T10:21:03;8.55;;;3.88;;
15629;SDS011;7914;50.842;0.166;2023-09-08T10:23:43;10.63;;;5.45;;
15629;SDS011;7914;50.842;0.166;2023-09-08T10:26:18;8.82;;;5.60;;
15629;SDS011;7914;50.842;0.166;2023-09-08T10:28:51;10.00;;;5.00;;
15629;SDS011;7914;50.842;0.166;2023-09-08T10:31:21;9.57;;;4.95;;
15629;SDS011;7914;50.842;0.166;2023-09-08T10:33:48;10.93;;;4.88;;
15629;SDS011;7914;50.842;0.166;2023-09-08T10:36:14;8.23;;;3.60;;
15629;SDS011;7914;50.842;0.166;2023-09-08T10:38:40;7.50;;;4.35;;
15629;SDS011;7914;50.842;0.166;2023-09-08T10:43:45;7.93;;;3.60;;
15629;SDS011;7914;50.842;0.166;2023-09-08T10:46:22;8.52;;;3.67;;
15629;SDS011;7914;50.842;0.166;2023-09-08T10:48:48;8.52;;;3.40;;
15629;SDS011;7914;50.842;0.166;2023-09-08T10:51:14;8.15;;;3.65;;
15629;SDS011;7914;50.842;0.166;2023-09-08T10:53:42;8.27;;;3.72;;
15629;SDS011;7914;50.842;0.166;2023-09-08T10:56:07;8.75;;;3.50;;
15629;SDS011;7914;50.842;0.166;2023-09-08T10:58:34;7.38;;;3.50;;
15629;SDS011;7914;50.842;0.166;2023-09-08T11:01:03;8.57;;;4.00;;
15629;SDS011;7914;50.842;0.166;2023-09-08T11:06:05;7.50;;;3.60;;
15629;SDS011;7914;50.842;0.166;2023-09-08T11:08:34;7.75;;;4.10;;
15629;SDS011;7914;50.842;0.166;2023-09-08T11:11:03;6.55;;;3.58;;
15629;SDS011;7914;50.842;0.166;2023-09-08T11:13:29;7.72;;;3.10;;
15629;SDS011;7914;50.842;0.166;2023-09-08T11:15:55;8.45;;;3.15;;
15629;SDS011;7914;50.842;0.166;2023-09-08T11:18:30;7.80;;;4.07;;
15629;SDS011;7914;50.842;0.166;2023-09-08T11:20:58;7.22;;;3.95;;
15629;SDS011;7914;50.842;0.166;2023-09-08T11:23:25;10.20;;;3.90;;
15629;SDS011;7914;50.842;0.166;2023-09-08T11:25:52;7.32;;;3.85;;
15629;SDS011;7914;50.842;0.166;2023-09-08T11:28:18;8.13;;;4.18;;
15629;SDS011;7914;50.842;0.166;2023-09-08T11:30:48;7.20;;;4.00;;
15629;SDS011;7914;50.842;0.166;2023-09-08T11:33:15;6.72;;;3.15;;
15629;SDS011;7914;50.842;0.166;2023-09-08T11:35:41;6.72;;;3.33;;
15629;SDS011;7914;50.842;0.166;2023-09-08T11:38:09;9.25;;;3.70;;
15629;SDS011;7914;50.842;0.166;2023-09-08T11:40:35;9.45;;;4.28;;
15629;SDS011;7914;50.842;0.166;2023-09-08T11:43:11;7.05;;;3.75;;
15629;SDS011;7914;50.842;0.166;2023-09-08T11:45:37;7.97;;;3.53;;
15629;SDS011;7914;50.842;0.166;2023-09-08T11:48:03;7.85;;;3.70;;
15629;SDS011;7914;50.842;0.166;2023-09-08T11:50:29;8.63;;;4.40;;
15629;SDS011;7914;50.842;0.166;2023-09-08T11:52:56;9.40;;;3.92;;
15629;SDS011;7914;50.842;0.166;2023-09-08T11:57:52;8.65;;;3.67;;
15629;SDS011;7914;50.842;0.166;2023-09-08T12:00:28;9.35;;;3.83;;
15629;SDS011;7914;50.842;0.166;2023-09-08T12:02:54;8.40;;;4.25;;
15629;SDS011;7914;50.842;0.166;2023-09-08T12:05:24;7.38;;;4.53;;
15629;SDS011;7914;50.842;0.166;2023-09-08T12:07:51;8.48;;;4.32;;
15629;SDS011;7914;50.842;0.166;2023-09-08T12:10:18;7.10;;;3.67;;
15629;SDS011;7914;50.842;0.166;2023-09-08T12:12:45;8.25;;;4.53;;
15629;SDS011;7914;50.842;0.166;2023-09-08T12:15:29;9.75;;;4.55;;
15629;SDS011;7914;50.842;0.166;2023-09-08T12:17:55;8.55;;;4.28;;
15629;SDS011;7914;50.842;0.166;2023-09-08T12:20:21;8.02;;;4.25;;
15629;SDS011;7914;50.842;0.166;2023-09-08T12:22:47;7.78;;;4.47;;
15629;SDS011;7914;50.842;0.166;2023-09-08T12:25:15;11.25;;;4.97;;
15629;SDS011;7914;50.842;0.166;2023-09-08T12:27:41;9.75;;;4.43;;
15629;SDS011;7914;50.842;0.166;2023-09-08T12:30:07;8.88;;;4.40;;
15629;SDS011;7914;50.842;0.166;2023-09-08T12:32:34;8.43;;;4.13;;
15629;SDS011;7914;50.842;0.166;2023-09-08T12:35:02;11.13;;;4.28;;
15629;SDS011;7914;50.842;0.166;2023-09-08T12:37:29;7.47;;;3.70;;
15629;SDS011;7914;50.842;0.166;2023-09-08T12:39:55;7.55;;;4.63;;
15629;SDS011;7914;50.842;0.166;2023-09-08T12:42:21;7.93;;;4.10;;
15629;SDS011;7914;50.842;0.166;2023-09-08T12:44:51;8.02;;;3.85;;
15629;SDS011;7914;50.842;0.166;2023-09-08T12:47:18;8.85;;;4.63;;
15629;SDS011;7914;50.842;0.166;2023-09-08T12:49:43;7.13;;;4.07;;
15629;SDS011;7914;50.842;0.166;2023-09-08T12:52:09;9.80;;;5.13;;
15629;SDS011;7914;50.842;0.166;2023-09-08T12:54:35;10.05;;;4.05;;
15629;SDS011;7914;50.842;0.166;2023-09-08T12:57:01;7.18;;;4.10;;
15629;SDS011;7914;50.842;0.166;2023-09-08T12:59:27;9.00;;;4.10;;
15629;SDS011;7914;50.842;0.166;2023-09-08T13:01:54;7.68;;;4.32;;
15629;SDS011;7914;50.842;0.166;2023-09-08T13:04:20;7.82;;;3.55;;
15629;SDS011;7914;50.842;0.166;2023-09-08T13:06:47;7.88;;;4.38;;
15629;SDS011;7914;50.842;0.166;2023-09-08T13:09:14;8.23;;;3.95;;
15629;SDS011;7914;50.842;0.166;2023-09-08T13:11:40;7.30;;;3.80;;
15629;SDS011;7914;50.842;0.166;2023-09-08T13:14:07;9.95;;;4.25;;
15629;SDS011;7914;50.842;0.166;2023-09-08T13:16:36;10.95;;;4.32;;
15629;SDS011;7914;50.842;0.166;2023-09-08T13:19:01;7.93;;;3.72;;
15629;SDS011;7914;50.842;0.166;2023-09-08T13:21:27;6.90;;;3.83;;
15629;SDS011;7914;50.842;0.166;2023-09-08T13:23:53;8.77;;;4.68;;
15629;SDS011;7914;50.842;0.166;2023-09-08T13:26:18;9.57;;;4.35;;
15629;SDS011;7914;50.842;0.166;2023-09-08T13:28:44;8.30;;;4.38;;
15629;SDS011;7914;50.842;0.166;2023-09-08T13:31:10;7.97;;;4.05;;
15629;SDS011;7914;50.842;0.166;2023-09-08T13:33:35;6.95;;;4.07;;
15629;SDS011;7914;50.842;0.166;2023-09-08T13:36:01;8.90;;;4.03;;
15629;SDS011;7914;50.842;0.166;2023-09-08T13:38:27;8.65;;;3.78;;
15629;SDS011;7914;50.842;0.166;2023-09-08T13:40:53;7.30;;;3.47;;
15629;SDS011;7914;50.842;0.166;2023-09-08T13:43:19;9.55;;;4.15;;
15629;SDS011;7914;50.842;0.166;2023-09-08T13:45:44;7.00;;;3.75;;
15629;SDS011;7914;50.842;0.166;2023-09-08T13:48:10;8.05;;;3.67;;
15629;SDS011;7914;50.842;0.166;2023-09-08T13:50:37;7.45;;;4.30;;
15629;SDS011;7914;50.842;0.166;2023-09-08T13:53:11;7.72;;;4.07;;
15629;SDS011;7914;50.842;0.166;2023-09-08T13:55:36;6.50;;;3.65;;
15629;SDS011;7914;50.842;0.166;2023-09-08T13:58:02;7.13;;;3.88;;
15629;SDS011;7914;50.842;0.166;2023-09-08T14:00:31;7.55;;;3.88;;
15629;SDS011;7914;50.842;0.166;2023-09-08T14:02:57;9.63;;;4.32;;
15629;SDS011;7914;50.842;0.166;2023-09-08T14:05:23;8.23;;;3.95;;
15629;SDS011;7914;50.842;0.166;2023-09-08T14:07:48;8.13;;;4.35;;
15629;SDS011;7914;50.842;0.166;2023-09-08T14:10:14;7.35;;;4.13;;
15629;SDS011;7914;50.842;0.166;2023-09-08T14:12:43;8.48;;;3.65;;
15629;SDS011;7914;50.842;0.166;2023-09-08T14:15:08;7.07;;;3.70;;
15629;SDS011;7914;50.842;0.166;2023-09-08T14:17:34;10.05;;;4.72;;
15629;SDS011;7914;50.842;0.166;2023-09-08T14:20:00;7.82;;;4.10;;
15629;SDS011;7914;50.842;0.166;2023-09-08T14:22:26;7.10;;;4.20;;
15629;SDS011;7914;50.842;0.166;2023-09-08T14:24:52;10.60;;;4.60;;
15629;SDS011;7914;50.842;0.166;2023-09-08T14:27:17;8.93;;;4.60;;
15629;SDS011;7914;50.842;0.166;2023-09-08T14:29:43;9.18;;;4.32;;
15629;SDS011;7914;50.842;0.166;2023-09-08T14:32:09;8.38;;;4.05;;
15629;SDS011;7914;50.842;0.166;2023-09-08T14:34:35;8.82;;;3.78;;
15629;SDS011;7914;50.842;0.166;2023-09-08T14:37:09;11.85;;;4.35;;
15629;SDS011;7914;50.842;0.166;2023-09-08T14:39:38;7.47;;;3.78;;
15629;SDS011;7914;50.842;0.166;2023-09-08T14:42:03;7.35;;;3.70;;
15629;SDS011;7914;50.842;0.166;2023-09-08T14:44:30;8.52;;;4.10;;
15629;SDS011;7914;50.842;0.166;2023-09-08T14:46:56;7.18;;;3.72;;
15629;SDS011;7914;50.842;0.166;2023-09-08T14:49:21;8.80;;;4.07;;
15629;SDS011;7914;50.842;0.166;2023-09-08T14:51:53;8.30;;;3.75;;
15629;SDS011;7914;50.842;0.166;2023-09-08T14:54:19;8.55;;;4.00;;
15629;SDS011;7914;50.842;0.166;2023-09-08T14:56:45;8.68;;;3.78;;
15629;SDS011;7914;50.842;0.166;2023-09-08T14:59:10;8.57;;;3.72;;
15629;SDS011;7914;50.842;0.166;2023-09-08T15:01:36;6.55;;;3.55;;
15629;SDS011;7914;50.842;0.166;2023-09-08T15:04:05;7.43;;;3.95;;
15629;SDS011;7914;50.842;0.166;2023-09-08T15:06:31;8.02;;;4.20;;
15629;SDS011;7914;50.842;0.166;2023-09-08T15:08:57;10.10;;;5.68;;